CheckWX is a tool to help pilots better visualize weather data.  It is not intended as a substitute for an official pre-flight weather briefing.

20:46:19 UTC

OIBA METAR
Abumusa Island Airport
Iran
Current

6 hours ago

OIBA 221500Z 08012KT CAVOK 22/08 Q1018
Observed
Nov-22 @ 15:00 UTC
Wind
  • 080° at 12 KTS
Visibility
10,000+ meters
Flight Rules
VFR
Cloud Levels
  • Clear skies
Temperature
22°C / 72°F
Dewpoint
C / 46°F
Humidity
41%
Altimeter
30.06" Hg
Pressure
1017.92 hPa
Previous

7 hours ago

OIBA 221400Z 06008KT CAVOK 23/07 Q1017
Observed
Nov-22 @ 14:00 UTC
Wind
  • 060° at 8 KTS
Visibility
10,000+ meters
Flight Rules
VFR
Cloud Levels
  • Clear skies
Temperature
23°C / 73°F
Dewpoint
C / 45°F
Humidity
36%
Altimeter
30.03" Hg
Pressure
1016.92 hPa
Previous

8 hours ago

OIBA 221300Z 07010KT CAVOK 23/08 Q1017
Observed
Nov-22 @ 13:00 UTC
Wind
  • 070° at 10 KTS
Visibility
10,000+ meters
Flight Rules
VFR
Cloud Levels
  • Clear skies
Temperature
23°C / 73°F
Dewpoint
C / 46°F
Humidity
38%
Altimeter
30.03" Hg
Pressure
1016.92 hPa